Time;durP1;ratioP1;P1;durP2;ratioP2;P2;SDS_P1;SDS_P2;PMS_P1;PMS_P2;Temp;Humidity;BMP_temperature;BMP_pressure;BME280_temperature;BME280_humidity;BME280_pressure;Samples;Min_cycle;Max_cycle;Signal;HPM_P1;HPM_P2
2021/11/14 00:00:56;;;;;;;29.06;15.18;;;;;;;3.72;71.10;100960.25;358938;150;857154;-58
2021/11/14 00:01:58;;;;;;;24.85;14.04;;;;;;;3.81;70.80;100954.58;358940;150;857231;-58
2021/11/14 00:03:00;;;;;;;31.35;14.45;;;;;;;3.87;70.34;100957.36;356898;149;858995;-58
2021/11/14 00:04:02;;;;;;;27.26;14.79;;;;;;;;;;356676;147;858576;-58
2021/11/14 00:05:05;;;;;;;30.62;15.74;;;;;;;;;;358412;147;865944;-59
2021/11/14 00:06:07;;;;;;;28.73;15.35;;;;;;;;;;358450;150;865296;-58
2021/11/14 00:07:09;;;;;;;32.31;17.77;;;;;;;;;;357600;147;865415;-60
2021/11/14 00:08:11;;;;;;;32.28;17.14;;;;;;;;;;357618;148;859527;-61
2021/11/14 00:09:13;;;;;;;33.99;18.87;;;;;;;;;;357536;147;857236;-60
2021/11/14 00:10:16;;;;;;;31.86;17.72;;;;;;;;;;357567;147;857513;-59
2021/11/14 00:11:18;;;;;;;32.60;17.49;;;;;;;;;;358108;147;858922;-59
2021/11/14 00:12:19;;;;;;;34.99;19.19;;;;;;;;;;358859;150;864910;-59
2021/11/14 00:13:21;;;;;;;42.57;20.36;;;;;;;;;;356906;147;857142;-59
2021/11/14 00:14:23;;;;;;;41.21;19.58;;;;;;;;;;357198;147;859074;-58
2021/11/14 00:15:24;;;;;;;36.72;20.25;;;;;;;;;;358267;147;857629;-59
2021/11/14 00:16:28;;;;;;;39.04;19.91;;;;;;;;;;352791;150;864714;-59
2021/11/14 00:17:29;;;;;;;41.91;21.39;;;;;;;;;;351637;151;859270;-59
2021/11/14 00:18:31;;;;;;;40.84;20.50;;;;;;;;;;358437;150;864915;-59
2021/11/14 00:19:32;;;;;;;39.48;20.39;;;;;;;;;;359446;150;858130;-59
2021/11/14 00:20:34;;;;;;;42.19;21.68;;;;;;;;;;357072;147;865473;-59
2021/11/14 00:21:40;;;;;;;44.04;21.63;;;;;;;;;;357294;147;864878;-59
2021/11/14 00:22:40;;;;;;;40.66;21.31;;;;;;;;;;356645;148;864986;-58
2021/11/14 00:23:41;;;;;;;38.56;21.14;;;;;;;;;;356202;148;864827;-59
2021/11/14 00:24:43;;;;;;;43.53;21.55;;;;;;;;;;357363;147;865737;-59
2021/11/14 00:25:44;;;;;;;42.74;21.78;;;;;;;;;;360365;147;865445;-59
2021/11/14 00:26:46;;;;;;;39.21;21.26;;;;;;;;;;358403;147;857376;-60
2021/11/14 00:27:48;;;;;;;40.94;21.01;;;;;;;;;;356846;147;865714;-58
2021/11/14 00:28:50;;;;;;;38.96;20.95;;;;;;;;;;356647;147;864670;-59
2021/11/14 00:29:51;;;;;;;41.88;21.82;;;;;;;;;;357794;150;857095;-58
2021/11/14 00:30:53;;;;;;;44.45;21.95;;;;;;;;;;356229;147;864712;-58
2021/11/14 00:31:55;;;;;;;39.09;20.73;;;;;;;;;;355060;147;857659;-58
2021/11/14 00:32:56;;;;;;;36.97;21.71;;;;;;;;;;358514;147;864847;-59
2021/11/14 00:33:58;;;;;;;41.13;21.29;;;;;;;;;;357022;147;857335;-59
2021/11/14 00:35:02;;;;;;;51.46;22.72;;;;;;;;;;357855;147;866631;-58
2021/11/14 00:36:04;;;;;;;40.99;21.66;;;;;;;;;;356243;147;866302;-58
2021/11/14 00:37:06;;;;;;;41.17;21.00;;;;;;;;;;357333;147;865812;-59
2021/11/14 00:38:08;;;;;;;43.07;22.25;;;;;;;;;;357531;147;858826;-60
2021/11/14 00:39:11;;;;;;;41.71;21.74;;;;;;;;;;357346;147;857510;-58
2021/11/14 00:40:16;;;;;;;40.36;21.92;;;;;;;;;;355034;150;857251;-58
2021/11/14 00:41:18;;;;;;;40.76;20.80;;;;;;;;;;354860;149;859729;-59
2021/11/14 00:42:19;;;;;;;44.96;22.31;;;;;;;;;;354238;147;858601;-59
2021/11/14 00:43:21;;;;;;;43.68;21.11;;;;;;;;;;355563;148;857257;-58
2021/11/14 00:44:23;;;;;;;40.56;21.41;;;;;;;;;;355836;150;865043;-60
2021/11/14 00:45:24;;;;;;;40.24;21.49;;;;;;;;;;355432;147;857918;-59
2021/11/14 00:46:26;;;;;;;43.29;21.43;;;;;;;;;;355305;147;860026;-58
2021/11/14 00:47:28;;;;;;;39.45;21.59;;;;;;;;;;354451;149;857166;-59
2021/11/14 00:48:29;;;;;;;37.89;19.77;;;;;;;;;;355566;148;856201;-60
2021/11/14 00:49:31;;;;;;;41.23;21.02;;;;;;;;;;355961;147;856280;-59
2021/11/14 00:50:33;;;;;;;45.16;22.00;;;;;;;;;;356014;150;856162;-58
2021/11/14 00:51:35;;;;;;;42.80;20.43;;;;;;;;;;357291;148;855967;-58
2021/11/14 00:52:39;;;;;;;39.77;20.17;;;;;;;;;;350643;150;856769;-58
2021/11/14 00:53:41;;;;;;;46.98;22.76;;;;;;;;;;351996;150;856459;-59
2021/11/14 00:54:43;;;;;;;41.31;21.01;;;;;;;;;;356806;149;855948;-58
2021/11/14 00:55:44;;;;;;;37.24;20.29;;;;;;;;;;355255;147;863736;-58
2021/11/14 00:56:46;;;;;;;47.85;23.38;;;;;;;;;;356352;147;863888;-58
2021/11/14 00:57:47;;;;;;;36.59;20.94;;;;;;;;;;357536;148;863740;-58
2021/11/14 00:58:49;;;;;;;37.74;18.97;;;;;;;;;;357237;148;863500;-59
2021/11/14 00:59:51;;;;;;;38.65;19.55;;;;;;;;;;355241;148;863711;-59
2021/11/14 01:02:38;;;;;;;36.46;18.48;;;;;;;3.46;72.50;100951.59;385305;136;881931;-57
2021/11/14 01:03:39;;;;;;;34.40;17.27;;;;;;;3.34;72.52;100952.89;376645;138;857054;-58
2021/11/14 01:04:41;;;;;;;25.11;12.31;;;;;;;3.36;72.68;100958.94;377376;138;864970;-58
2021/11/14 01:05:43;;;;;;;31.83;14.79;;;;;;;3.38;72.64;100951.30;376493;139;865786;-59
2021/11/14 01:06:45;;;;;;;30.19;14.51;;;;;;;3.41;72.79;100953.12;378266;138;857687;-58
2021/11/14 01:07:46;;;;;;;27.00;15.20;;;;;;;3.47;72.92;100956.77;378776;138;857152;-58
2021/11/14 01:08:48;;;;;;;24.90;11.43;;;;;;;3.57;72.93;100949.42;376734;139;864809;-57
2021/11/14 01:09:50;;;;;;;28.83;14.14;;;;;;;3.68;72.72;100949.83;378267;138;865253;-58
2021/11/14 01:10:53;;;;;;;28.67;14.69;;;;;;;3.78;72.50;100957.03;377772;138;865023;-58
2021/11/14 01:11:54;;;;;;;27.42;13.94;;;;;;;3.88;72.38;100953.13;375799;139;857160;-58
2021/11/14 01:12:56;;;;;;;21.03;12.71;;;;;;;3.98;72.25;100946.61;382736;139;857103;-58
2021/11/14 01:13:58;;;;;;;28.99;13.77;;;;;;;4.09;71.94;100940.17;376895;139;864665;-58
2021/11/14 01:15:00;;;;;;;28.39;13.59;;;;;;;4.23;71.77;100931.26;378039;138;857768;-58
2021/11/14 01:16:03;;;;;;;24.51;13.17;;;;;;;4.23;71.77;100931.26;376115;141;857200;-59
2021/11/14 01:17:05;;;;;;;23.06;14.10;;;;;;;4.38;71.40;100948.01;376845;139;858748;-58
2021/11/14 01:18:08;;;;;;;23.90;14.17;;;;;;;4.46;71.01;100949.13;377335;138;856280;-57
2021/11/14 01:19:10;;;;;;;24.22;13.81;;;;;;;;;;377302;138;857773;-58
2021/11/14 01:20:14;;;;;;;27.09;14.84;;;;;;;;;;374261;141;864892;-58
2021/11/14 01:21:16;;;;;;;24.33;13.69;;;;;;;;;;372822;141;857580;-58
2021/11/14 01:22:17;;;;;;;29.94;14.45;;;;;;;;;;371479;141;857107;-56
2021/11/14 01:23:19;;;;;;;33.25;17.84;;;;;;;;;;369393;141;857154;-57
2021/11/14 01:24:21;;;;;;;31.94;16.78;;;;;;;;;;370092;141;866751;-58
2021/11/14 01:25:23;;;;;;;32.59;16.65;;;;;;;;;;372899;141;857654;-57
2021/11/14 01:26:26;;;;;;;32.39;18.28;;;;;;;;;;371953;141;857115;-57
2021/11/14 01:27:27;;;;;;;34.81;18.98;;;;;;;;;;368123;142;858603;-57
2021/11/14 01:28:29;;;;;;;34.85;18.80;;;;;;;;;;371274;141;857239;-57
2021/11/14 01:29:30;;;;;;;31.94;18.18;;;;;;;;;;374184;141;857283;-58
2021/11/14 01:30:34;;;;;;;32.63;18.38;;;;;;;;;;372636;141;866627;-57
2021/11/14 01:31:36;;;;;;;34.93;19.21;;;;;;;;;;369486;141;857266;-58
2021/11/14 01:32:38;;;;;;;33.49;18.87;;;;;;;;;;371637;141;857128;-57
2021/11/14 01:33:39;;;;;;;33.31;19.11;;;;;;;;;;371443;144;864963;-57
2021/11/14 01:34:41;;;;;;;31.71;17.72;;;;;;;;;;368635;142;857221;-60
2021/11/14 01:35:43;;;;;;;34.47;19.05;;;;;;;;;;372120;141;865015;-58
2021/11/14 01:36:44;;;;;;;34.27;18.64;;;;;;;;;;372651;141;858872;-59
2021/11/14 01:37:46;;;;;;;40.85;20.73;;;;;;;;;;371460;144;864465;-58
2021/11/14 01:38:48;;;;;;;38.65;20.59;;;;;;;;;;371371;141;864768;-58
2021/11/14 01:39:50;;;;;;;38.91;20.31;;;;;;;;;;371144;141;857276;-58
2021/11/14 01:40:53;;;;;;;35.67;20.06;;;;;;;;;;370263;142;865749;-60
2021/11/14 01:41:55;;;;;;;33.99;18.79;;;;;;;;;;368645;142;865102;-60
2021/11/14 01:42:56;;;;;;;33.77;18.20;;;;;;;;;;371523;142;857150;-57
2021/11/14 01:43:58;;;;;;;39.95;20.75;;;;;;;;;;372804;141;866648;-58
2021/11/14 01:45:00;;;;;;;39.43;19.96;;;;;;;;;;369596;141;857464;-58
2021/11/14 01:46:02;;;;;;;36.34;19.60;;;;;;;;;;371357;141;865866;-58
2021/11/14 01:47:03;;;;;;;36.55;20.45;;;;;;;;;;371909;141;858231;-59
2021/11/14 01:48:05;;;;;;;33.59;19.54;;;;;;;;;;369706;142;862283;-58
2021/11/14 01:49:07;;;;;;;37.86;20.40;;;;;;;;;;371364;141;864609;-59
2021/11/14 01:50:11;;;;;;;41.12;20.57;;;;;;;;;;373146;141;864818;-60
2021/11/14 01:51:13;;;;;;;38.04;20.85;;;;;;;;;;369176;141;857184;-58
2021/11/14 01:52:19;;;;;;;41.44;21.19;;;;;;;;;;371645;144;858506;-58
2021/11/14 01:53:20;;;;;;;39.91;22.03;;;;;;;;;;370439;141;864646;-57
2021/11/14 01:54:22;;;;;;;38.59;20.92;;;;;;;;;;369748;141;857717;-58
2021/11/14 01:55:25;;;;;;;43.41;22.54;;;;;;;;;;371649;144;865602;-59
2021/11/14 01:56:27;;;;;;;36.89;20.59;;;;;;;;;;372322;142;865798;-57
2021/11/14 01:57:29;;;;;;;43.06;21.24;;;;;;;;;;372411;141;857166;-59
2021/11/14 01:58:30;;;;;;;39.61;21.91;;;;;;;;;;372314;142;865595;-58
2021/11/14 01:59:35;;;;;;;40.26;22.14;;;;;;;;;;371923;143;865340;-58
2021/11/14 02:00:38;;;;;;;41.56;21.50;;;;;;;;;;371782;142;857180;-58
2021/11/14 02:01:40;;;;;;;38.04;21.22;;;;;;;;;;371316;142;858541;-60
2021/11/14 02:02:41;;;;;;;37.27;21.14;;;;;;;;;;372633;142;857408;-58
2021/11/14 02:03:44;;;;;;;41.21;21.44;;;;;;;;;;369961;142;864852;-59
2021/11/14 02:04:46;;;;;;;36.19;20.81;;;;;;;;;;371758;141;864823;-59
2021/11/14 02:05:47;;;;;;;40.16;22.33;;;;;;;;;;369909;141;857243;-59
2021/11/14 02:06:49;;;;;;;39.61;21.64;;;;;;;;;;362481;146;859488;-59
2021/11/14 02:07:51;;;;;;;45.56;22.16;;;;;;;;;;370882;141;865224;-62
2021/11/14 02:08:53;;;;;;;38.32;21.83;;;;;;;;;;370878;141;856533;-59
2021/11/14 02:09:56;;;;;;;39.02;21.39;;;;;;;;;;373169;142;859162;-59
2021/11/14 02:10:57;;;;;;;38.52;22.37;;;;;;;;;;370398;142;858873;-59
2021/11/14 02:11:59;;;;;;;38.21;21.74;;;;;;;;;;372563;141;864726;-59
2021/11/14 02:13:02;;;;;;;46.07;23.95;;;;;;;;;;372409;142;859359;-59
2021/11/14 02:14:03;;;;;;;38.46;22.31;;;;;;;;;;369884;142;857322;-59
2021/11/14 02:15:05;;;;;;;43.51;23.09;;;;;;;;;;370872;141;857240;-58
2021/11/14 02:16:07;;;;;;;41.98;21.67;;;;;;;;;;369932;142;864988;-59
2021/11/14 02:17:09;;;;;;;40.19;23.30;;;;;;;;;;369929;141;858743;-58
2021/11/14 02:18:11;;;;;;;46.42;23.07;;;;;;;;;;370209;141;864837;-58
2021/11/14 02:19:13;;;;;;;38.28;21.66;;;;;;;;;;372685;141;860091;-58
2021/11/14 02:20:16;;;;;;;42.98;22.67;;;;;;;;;;369996;141;857163;-59
2021/11/14 02:21:18;;;;;;;42.19;23.00;;;;;;;;;;369804;143;857226;-58
2021/11/14 02:22:20;;;;;;;40.14;22.55;;;;;;;;;;371093;141;857156;-58
2021/11/14 02:23:22;;;;;;;43.67;23.07;;;;;;;;;;368008;141;857619;-59
2021/11/14 02:24:24;;;;;;;39.99;22.20;;;;;;;;;;370443;141;857151;-57
2021/11/14 02:25:26;;;;;;;42.50;22.99;;;;;;;;;;372444;141;857161;-59
2021/11/14 02:26:29;;;;;;;40.61;22.38;;;;;;;;;;372079;141;864713;-59
2021/11/14 02:27:30;;;;;;;43.30;22.63;;;;;;;;;;370603;141;857154;-60
2021/11/14 02:28:32;;;;;;;43.98;22.59;;;;;;;;;;372503;142;858610;-59
2021/11/14 02:29:34;;;;;;;40.85;21.64;;;;;;;;;;371010;141;864984;-59
2021/11/14 02:30:37;;;;;;;47.61;23.07;;;;;;;;;;369150;141;864738;-59
2021/11/14 02:31:38;;;;;;;42.02;21.80;;;;;;;;;;370314;143;858878;-59
2021/11/14 02:32:40;;;;;;;40.37;22.34;;;;;;;;;;370441;141;865761;-58
2021/11/14 02:33:41;;;;;;;40.06;21.56;;;;;;;;;;369752;142;864835;-57
2021/11/14 02:34:43;;;;;;;40.90;21.66;;;;;;;;;;370171;142;864785;-58
2021/11/14 02:35:46;;;;;;;42.65;22.12;;;;;;;;;;370972;143;857450;-60
2021/11/14 02:36:48;;;;;;;42.96;23.30;;;;;;;;;;371779;141;864877;-56
2021/11/14 02:37:50;;;;;;;43.35;21.87;;;;;;;;;;370348;144;859442;-58
2021/11/14 02:38:52;;;;;;;39.41;22.15;;;;;;;;;;368607;143;864703;-59
2021/11/14 02:39:53;;;;;;;41.32;21.60;;;;;;;;;;370023;141;857229;-58
2021/11/14 02:40:55;;;;;;;42.08;22.59;;;;;;;;;;370433;142;864682;-58
2021/11/14 02:41:56;;;;;;;40.17;21.59;;;;;;;;;;368781;144;866928;-58
2021/11/14 02:42:58;;;;;;;44.42;23.65;;;;;;;;;;368402;141;858900;-59
2021/11/14 02:44:00;;;;;;;42.68;23.69;;;;;;;;;;370878;141;858246;-58
2021/11/14 02:45:02;;;;;;;40.99;22.17;;;;;;;;;;369898;142;861205;-59
2021/11/14 02:46:04;;;;;;;42.01;22.10;;;;;;;;;;370191;141;858081;-59
2021/11/14 02:47:05;;;;;;;41.01;21.73;;;;;;;;;;371424;141;857825;-60
2021/11/14 02:48:07;;;;;;;43.65;22.96;;;;;;;;;;370979;142;856354;-59
2021/11/14 02:49:09;;;;;;;40.64;22.06;;;;;;;;;;372082;142;865955;-59
2021/11/14 02:50:11;;;;;;;41.85;21.70;;;;;;;;;;368634;142;866587;-59
2021/11/14 02:51:15;;;;;;;38.61;21.05;;;;;;;;;;370979;141;857653;-58
2021/11/14 02:52:16;;;;;;;42.55;22.58;;;;;;;;;;370020;144;859402;-59
2021/11/14 02:53:18;;;;;;;41.01;23.94;;;;;;;;;;369131;143;860086;-59
2021/11/14 02:54:20;;;;;;;43.11;23.57;;;;;;;;;;370231;141;864858;-56
2021/11/14 02:55:23;;;;;;;43.06;23.49;;;;;;;;;;367157;142;857513;-58
2021/11/14 02:56:26;;;;;;;42.25;22.55;;;;;;;;;;371503;141;865421;-61
2021/11/14 02:57:28;;;;;;;44.04;23.25;;;;;;;;;;371249;141;858822;-58
2021/11/14 02:58:29;;;;;;;42.37;23.76;;;;;;;;;;370896;141;857954;-58
2021/11/14 02:59:32;;;;;;;40.63;23.32;;;;;;;;;;370452;142;857637;-59
2021/11/14 03:00:48;;;;;;;43.59;23.93;;;;;;;;;;370777;141;864828;-58
2021/11/14 03:01:52;;;;;;;45.16;24.02;;;;;;;;;;371987;142;859942;-60
2021/11/14 03:02:53;;;;;;;41.09;23.02;;;;;;;;;;369356;143;857037;-58
2021/11/14 03:03:55;;;;;;;46.40;23.74;;;;;;;;;;363411;145;863793;-60
2021/11/14 03:04:57;;;;;;;43.81;24.96;;;;;;;;;;362282;144;863776;-60
2021/11/14 03:05:58;;;;;;;46.08;23.78;;;;;;;;;;366746;144;864471;-61
2021/11/14 03:07:00;;;;;;;40.31;23.24;;;;;;;;;;367781;145;863898;-59
2021/11/14 03:08:04;;;;;;;39.87;22.53;;;;;;;;;;364444;144;864198;-58
2021/11/14 03:09:06;;;;;;;44.43;22.93;;;;;;;;;;362315;144;856179;-58
2021/11/14 03:10:10;;;;;;;40.46;23.04;;;;;;;;;;364820;144;857078;-58
2021/11/14 03:11:11;;;;;;;42.78;22.38;;;;;;;;;;362394;145;855991;-58
2021/11/14 03:12:13;;;;;;;46.16;22.86;;;;;;;;;;363074;144;856611;-58
2021/11/14 03:13:15;;;;;;;38.93;21.83;;;;;;;;;;365674;145;862051;-58
2021/11/14 03:14:17;;;;;;;44.28;22.75;;;;;;;;;;361967;144;856814;-59
2021/11/14 03:15:19;;;;;;;40.25;22.68;;;;;;;;;;363268;145;856100;-58
2021/11/14 03:16:22;;;;;;;42.70;22.86;;;;;;;;;;361243;145;863744;-57
2021/11/14 03:17:23;;;;;;;42.28;22.61;;;;;;;;;;367306;144;855926;-57
2021/11/14 03:18:25;;;;;;;40.31;22.55;;;;;;;;;;365199;144;856126;-58
2021/11/14 03:19:27;;;;;;;38.94;21.64;;;;;;;;;;363375;144;864298;-59
2021/11/14 03:22:18;;;;;;;38.29;21.09;;;;;;;4.39;71.78;100927.53;371866;142;881214;-58
2021/11/14 03:23:21;;;;;;;32.65;18.23;;;;;;;4.31;71.90;100936.66;360662;146;857183;-59
2021/11/14 03:24:23;;;;;;;33.04;17.46;;;;;;;4.29;71.92;100928.05;363575;147;857145;-58
2021/11/14 03:25:26;;;;;;;31.39;16.91;;;;;;;4.31;71.99;100938.37;361597;147;857287;-58
2021/11/14 03:26:29;;;;;;;31.81;16.29;;;;;;;4.33;71.87;100927.33;361127;146;867033;-59
2021/11/14 03:27:31;;;;;;;31.20;16.69;;;;;;;4.40;71.84;100925.85;360589;147;857308;-58
2021/11/14 03:28:33;;;;;;;28.88;15.89;;;;;;;4.51;71.73;100931.31;360993;147;857242;-60
2021/11/14 03:29:35;;;;;;;30.73;15.25;;;;;;;4.61;71.27;100935.92;361630;146;857698;-58
2021/11/14 03:30:37;;;;;;;27.64;15.21;;;;;;;4.74;71.11;100933.75;363227;147;860175;-59
2021/11/14 03:31:40;;;;;;;30.51;15.55;;;;;;;4.85;70.62;100934.98;361368;147;858663;-60
2021/11/14 03:32:42;;;;;;;28.87;15.64;;;;;;;4.99;70.19;100935.40;362245;146;857192;-58
2021/11/14 03:42:16;;;;;;;29.13;16.04;;;;;;;5.63;67.27;100920.16;372727;142;867822;-58
2021/11/14 03:43:18;;;;;;;33.72;18.79;;;;;;;;;;363091;146;859384;-58
2021/11/14 03:44:19;;;;;;;30.60;18.40;;;;;;;;;;363556;146;857136;-56
2021/11/14 03:45:21;;;;;;;32.11;19.25;;;;;;;;;;364390;147;857254;-57
2021/11/14 03:46:23;;;;;;;33.89;19.86;;;;;;;;;;362558;147;865075;-58
2021/11/14 03:47:25;;;;;;;34.81;19.04;;;;;;;;;;363539;146;859308;-56
2021/11/14 03:48:26;;;;;;;37.54;19.69;;;;;;;;;;363139;146;859017;-57
2021/11/14 03:49:28;;;;;;;37.64;19.90;;;;;;;;;;361394;147;860848;-57
2021/11/14 03:50:29;;;;;;;35.40;19.80;;;;;;;;;;363687;145;865851;-60
2021/11/14 03:51:31;;;;;;;39.97;21.41;;;;;;;;;;363850;147;865503;-58
2021/11/14 03:52:33;;;;;;;36.59;20.73;;;;;;;;;;365090;146;859441;-57
2021/11/14 03:53:34;;;;;;;37.86;21.20;;;;;;;;;;361039;147;857143;-56
2021/11/14 03:54:36;;;;;;;41.51;21.29;;;;;;;;;;364226;146;857428;-56
2021/11/14 03:55:37;;;;;;;40.84;21.20;;;;;;;;;;364828;146;864010;-56
2021/11/14 03:56:39;;;;;;;37.47;20.73;;;;;;;;;;363845;147;861308;-59
2021/11/14 03:57:41;;;;;;;37.84;20.80;;;;;;;;;;364329;146;865874;-57
2021/11/14 03:58:43;;;;;;;42.60;21.46;;;;;;;;;;361293;146;865573;-56
2021/11/14 03:59:44;;;;;;;38.24;20.91;;;;;;;;;;363316;146;860384;-58
2021/11/14 04:02:30;;;;;;;38.03;20.53;;;;;;;4.62;69.35;100926.55;412036;130;860359;-57
2021/11/14 04:03:31;;;;;;;36.01;20.73;;;;;;;;;;399166;132;858559;-57
2021/11/14 04:04:33;;;;;;;43.05;21.94;;;;;;;;;;401812;132;864765;-55
2021/11/14 04:05:35;;;;;;;41.45;22.66;;;;;;;;;;399990;132;857239;-57
2021/11/14 04:06:36;;;;;;;46.22;23.44;;;;;;;;;;399941;132;857245;-58
2021/11/14 04:07:38;;;;;;;42.03;24.65;;;;;;;;;;398532;132;866704;-58
2021/11/14 04:08:40;;;;;;;48.21;25.29;;;;;;;;;;398539;132;857193;-58
2021/11/14 04:09:42;;;;;;;44.66;23.58;;;;;;;;;;400802;133;865103;-58
2021/11/14 04:10:44;;;;;;;44.04;24.16;;;;;;;;;;398028;133;865081;-57
2021/11/14 04:11:45;;;;;;;42.75;23.88;;;;;;;;;;400485;133;857395;-58
2021/11/14 04:12:47;;;;;;;46.00;24.60;;;;;;;;;;397896;132;857244;-58
2021/11/14 04:13:49;;;;;;;44.10;24.73;;;;;;;;;;398779;133;858849;-58
2021/11/14 04:14:50;;;;;;;49.21;24.77;;;;;;;;;;399589;133;857217;-59
2021/11/14 04:15:52;;;;;;;45.62;24.51;;;;;;;;;;398190;132;864833;-60
2021/11/14 04:16:54;;;;;;;49.31;25.91;;;;;;;;;;397165;133;864973;-58
2021/11/14 04:17:56;;;;;;;45.49;22.94;;;;;;;;;;398452;133;857135;-57
2021/11/14 04:22:57;;;;;;;48.98;24.20;;;;;;;3.75;71.29;100923.62;370151;142;881814;-62
2021/11/14 04:23:59;;;;;;;38.85;21.15;;;;;;;3.62;71.32;100935.98;365509;147;859566;-61
2021/11/14 04:25:02;;;;;;;32.50;19.12;;;;;;;3.59;71.51;100940.11;363743;147;857730;-60
2021/11/14 04:26:04;;;;;;;34.65;18.33;;;;;;;3.57;71.43;100932.38;361495;147;857399;-61
2021/11/14 04:27:07;;;;;;;34.25;18.76;;;;;;;3.56;71.47;100937.44;356062;150;857570;-61
2021/11/14 04:28:12;;;;;;;34.84;18.97;;;;;;;3.60;71.61;100936.73;355931;147;856362;-61
2021/11/14 04:29:14;;;;;;;34.86;18.07;;;;;;;3.64;71.42;100931.79;362301;146;859308;-61
2021/11/14 04:30:17;;;;;;;34.86;18.05;;;;;;;3.73;71.25;100932.94;364272;146;857117;-61
2021/11/14 04:31:19;;;;;;;33.85;18.33;;;;;;;3.83;71.11;100936.71;352074;150;857382;-61
2021/11/14 04:32:21;;;;;;;30.60;17.68;;;;;;;3.91;70.61;100941.27;353082;147;858652;-62
2021/11/14 04:33:23;;;;;;;31.13;16.39;;;;;;;3.99;70.40;100935.55;362922;146;857400;-61
2021/11/14 04:34:25;;;;;;;35.85;17.13;;;;;;;4.04;70.21;100932.34;363423;147;863675;-61
2021/11/14 04:35:26;;;;;;;36.42;17.79;;;;;;;4.13;70.00;100926.64;363124;147;856676;-62
2021/11/14 04:36:29;;;;;;;35.32;18.01;;;;;;;4.22;69.77;100932.08;363967;146;856468;-62
2021/11/14 04:37:31;;;;;;;34.42;17.97;;;;;;;4.29;68.63;100925.48;362927;146;856172;-62
2021/11/14 04:38:33;;;;;;;35.95;19.17;;;;;;;4.37;68.80;100930.88;362044;147;856907;-63
2021/11/14 04:39:35;;;;;;;36.62;20.87;;;;;;;4.44;68.54;100937.06;364509;147;856705;-62
2021/11/14 04:42:34;;;;;;;36.14;20.64;;;;;;;4.63;67.81;100935.98;369307;141;881353;-58
2021/11/14 04:43:36;;;;;;;46.52;22.71;;;;;;;4.49;67.75;100933.84;364111;146;857662;-59
2021/11/14 04:44:38;;;;;;;40.63;21.19;;;;;;;4.42;67.58;100934.47;368057;141;859295;-59
2021/11/14 04:45:40;;;;;;;41.14;21.31;;;;;;;4.36;67.87;100934.27;369617;145;859752;-58
2021/11/14 04:46:43;;;;;;;36.82;21.19;;;;;;;4.30;67.92;100932.34;371308;144;857224;-59
2021/11/14 04:47:44;;;;;;;42.99;23.45;;;;;;;4.22;68.04;100926.95;367534;143;864729;-58
2021/11/14 04:48:46;;;;;;;44.27;22.88;;;;;;;;;;361295;148;857581;-58
2021/11/14 04:49:48;;;;;;;44.71;22.50;;;;;;;;;;365977;145;865296;-58
2021/11/14 04:50:50;;;;;;;44.88;23.25;;;;;;;;;;358835;149;866029;-57
2021/11/14 04:51:51;;;;;;;46.01;22.71;;;;;;;;;;367961;143;858652;-58
2021/11/14 04:52:53;;;;;;;47.06;24.31;;;;;;;;;;362497;147;858149;-58
2021/11/14 04:53:55;;;;;;;45.20;22.31;;;;;;;;;;358161;146;865044;-56
2021/11/14 04:54:57;;;;;;;43.63;23.88;;;;;;;;;;362911;145;857168;-59
2021/11/14 04:55:58;;;;;;;44.16;23.58;;;;;;;;;;366794;143;857876;-59
2021/11/14 04:57:00;;;;;;;42.41;23.21;;;;;;;;;;357739;148;857717;-61
2021/11/14 04:58:02;;;;;;;44.81;23.39;;;;;;;;;;362008;146;865989;-59
2021/11/14 04:59:04;;;;;;;43.25;23.99;;;;;;;;;;368429;143;860021;-60
2021/11/14 05:00:10;;;;;;;46.77;24.08;;;;;;;;;;364484;143;856646;-61
2021/11/14 05:01:12;;;;;;;51.39;24.36;;;;;;;;;;365870;144;857283;-61
2021/11/14 05:02:14;;;;;;;47.00;24.59;;;;;;;;;;368523;143;858695;-60
2021/11/14 05:03:16;;;;;;;48.37;24.74;;;;;;;;;;368763;145;864960;-59
2021/11/14 05:04:17;;;;;;;48.02;24.43;;;;;;;;;;368568;143;857289;-61
2021/11/14 05:05:19;;;;;;;48.46;25.58;;;;;;;;;;367335;144;857918;-64
2021/11/14 05:06:21;;;;;;;48.15;25.75;;;;;;;;;;369022;143;859033;-61
2021/11/14 05:07:23;;;;;;;44.41;24.17;;;;;;;;;;369032;143;857120;-61
2021/11/14 05:08:24;;;;;;;49.57;22.97;;;;;;;;;;365174;144;857547;-60
2021/11/14 06:06:10;;;;;;;47.07;17.59;;;;;;;1.62;81.91;100991.81;367825;144;859064;-58
2021/11/14 06:07:12;;;;;;;31.90;16.29;;;;;;;1.67;81.88;100999.66;368975;144;865769;-58
2021/11/14 06:08:20;;;;;;;34.46;16.24;;;;;;;1.73;81.84;100994.83;356908;148;866763;-60
2021/11/14 06:09:18;;;;;;;28.81;14.24;;;;;;;1.86;81.82;100993.70;365733;144;865019;-59
2021/11/14 06:10:20;;;;;;;32.99;14.85;;;;;;;2.01;81.68;100990.94;367410;144;864964;-60
2021/11/14 06:11:25;;;;;;;28.97;14.45;;;;;;;2.20;81.40;100995.18;367139;144;857464;-59
2021/11/14 06:12:29;;;;;;;31.49;16.29;;;;;;;2.41;80.91;100990.13;365214;144;859356;-59
2021/11/14 06:13:34;;;;;;;30.77;16.31;;;;;;;2.61;79.95;100985.82;364182;145;859274;-60
2021/11/14 06:14:36;;;;;;;32.49;16.12;;;;;;;2.81;79.23;100988.35;360857;145;864958;-60
2021/11/14 06:15:38;;;;;;;31.77;15.69;;;;;;;3.02;78.58;100988.31;368719;144;857096;-60
2021/11/14 06:16:40;;;;;;;29.77;15.79;;;;;;;3.25;78.08;100998.61;366695;144;857606;-61
2021/11/14 06:17:42;;;;;;;25.66;14.69;;;;;;;3.44;77.46;100992.49;368414;144;857344;-58
2021/11/14 06:18:44;;;;;;;27.05;15.29;;;;;;;3.65;76.71;101004.36;366512;144;857187;-59
2021/11/14 06:19:48;;;;;;;29.59;14.67;;;;;;;3.86;76.11;100996.60;361393;147;857258;-59
2021/11/14 06:20:51;;;;;;;27.75;14.12;;;;;;;4.07;75.49;100996.52;358771;147;864869;-58
2021/11/14 06:21:52;;;;;;;29.59;16.46;;;;;;;4.31;74.61;100992.20;356676;147;859702;-58
2021/11/14 06:22:54;;;;;;;30.40;15.39;;;;;;;4.50;73.44;100989.45;361196;147;857348;-58
2021/11/14 06:23:56;;;;;;;27.31;15.75;;;;;;;4.65;72.45;101001.04;361586;146;864897;-59
2021/11/14 06:24:58;;;;;;;28.35;15.12;;;;;;;4.76;71.60;100999.70;362905;147;857227;-59
2021/11/14 06:26:00;;;;;;;28.27;14.56;;;;;;;4.88;71.29;100995.78;364528;147;864815;-58
2021/11/14 06:27:01;;;;;;;26.54;14.92;;;;;;;4.97;71.02;100996.97;362096;147;865151;-58
2021/11/14 06:28:04;;;;;;;27.52;15.41;;;;;;;5.08;70.42;100993.87;362797;147;864962;-59
2021/11/14 06:29:06;;;;;;;27.13;15.39;;;;;;;5.21;70.19;100998.56;361094;147;858997;-57
2021/11/14 06:30:11;;;;;;;28.65;15.98;;;;;;;5.36;69.96;100999.84;360306;147;856896;-58
2021/11/14 06:31:12;;;;;;;28.81;16.54;;;;;;;5.43;68.23;100988.08;360697;146;864038;-58
2021/11/14 06:32:14;;;;;;;30.38;18.17;;;;;;;5.44;67.56;100992.39;362743;147;857285;-58
2021/11/14 06:33:16;;;;;;;35.34;17.99;;;;;;;5.46;68.31;101001.87;365194;146;858824;-58
2021/11/14 06:34:18;;;;;;;32.80;18.90;;;;;;;5.55;68.67;100998.72;361960;146;857338;-58
2021/11/14 06:35:20;;;;;;;34.16;20.32;;;;;;;5.64;68.57;100996.42;361837;147;857171;-58
2021/11/14 06:36:23;;;;;;;36.29;19.34;;;;;;;5.72;68.40;101003.48;361245;147;864767;-60
2021/11/14 06:37:25;;;;;;;33.83;19.69;;;;;;;5.80;67.87;100995.14;361832;147;858894;-59
2021/11/14 06:38:27;;;;;;;35.12;20.75;;;;;;;5.86;67.70;100991.89;360356;146;857371;-58
2021/11/14 06:39:30;;;;;;;37.91;20.68;;;;;;;;;;363669;147;859402;-58
2021/11/14 06:40:33;;;;;;;41.46;21.31;;;;;;;;;;362125;146;857272;-57
2021/11/14 06:41:34;;;;;;;34.22;19.92;;;;;;;;;;360841;146;858897;-59
2021/11/14 06:42:36;;;;;;;37.21;21.29;;;;;;;;;;364992;147;864534;-57
2021/11/14 06:43:38;;;;;;;38.94;21.33;;;;;;;;;;362010;147;864692;-61
2021/11/14 06:44:39;;;;;;;50.25;23.08;;;;;;;;;;350162;150;864811;-60
2021/11/14 06:45:41;;;;;;;41.70;23.01;;;;;;;;;;361368;146;864986;-59
2021/11/14 06:46:43;;;;;;;41.21;22.24;;;;;;;;;;361814;147;866764;-58
2021/11/14 06:47:44;;;;;;;40.05;22.38;;;;;;;;;;361977;146;857901;-58
2021/11/14 06:48:46;;;;;;;39.60;22.82;;;;;;;;;;360941;146;860382;-57
2021/11/14 06:49:51;;;;;;;50.04;23.34;;;;;;;;;;361343;147;865706;-57